Latest Weather Observations for Busselton Jetty

IDW60801

Issued at 8:03 pm WST Thursday 30 July 2015 (issued every 30 minutes, with the page automatically refreshed every 10 minutes)

About weather observations | Map of weather stations | Latest weather observations for WA | Other Formats
Station Details ID: 009937 Name: BUSSELTON JETTY Lat: -33.63 Lon: 115.34 Height: 3.0 m
Data from the previous 72 hours. | See also: Recent months at Busselton Jetty
Date/Time
WST
Temp
°C
App
Temp
°C
Dew
Point
Rel
Hum
%
Delta-T
°C
Wind Press
QNH
hPa
Press
MSL
hPa
Rain
since 9 am
mm
Dir
 
Spd
km/h
Gust
km/h
Spd
kts
Gust
kts
30/08:00pm - - - - - NE 33 41 18 22 - - -
30/07:30pm - - - - - NE 28 37 15 20 - - -
30/07:00pm - - - - - NE 32 33 17 18 - - -
30/06:30pm - - - - - NE 28 32 15 17 - - -
30/06:00pm - - - - - NE 32 37 17 20 - - -
30/05:30pm - - - - - NE 30 35 16 19 - - -
30/05:00pm - - - - - E 26 32 14 17 - - -
30/04:30pm - - - - - ESE 17 24 9 13 - - -
30/04:00pm - - - - - SE 19 22 10 12 - - -
30/03:30pm - - - - - SE 17 20 9 11 - - -
30/03:00pm - - - - - ESE 13 17 7 9 - - -
30/02:30pm - - - - - SE 20 24 11 13 - - -
30/02:00pm - - - - - SE 17 20 9 11 - - -
30/01:30pm - - - - - ESE 17 19 9 10 - - -
30/01:00pm - - - - - SE 17 19 9 10 - - -
30/12:30pm - - - - - SE 17 20 9 11 - - -
30/12:00pm - - - - - SSE 17 20 9 11 - - -
30/11:30am - - - - - SE 15 17 8 9 - - -
30/11:00am - - - - - ESE 15 19 8 10 - - -
30/10:30am - - - - - ESE 15 17 8 9 - - -
30/10:00am - - - - - SE 19 22 10 12 - - -
30/09:30am - - - - - SE 19 20 10 11 - - -
30/09:00am - - - - - ESE 19 20 10 11 - - -
30/08:30am - - - - - ESE 17 19 9 10 - - -
30/08:00am - - - - - SE 15 19 8 10 - - -
30/07:30am - - - - - SE 13 15 7 8 - - -
30/07:00am - - - - - SSE 17 20 9 11 - - -
30/06:30am - - - - - SSE 19 24 10 13 - - -
30/06:00am - - - - - ESE 20 26 11 14 - - -
30/05:30am - - - - - SE 24 28 13 15 - - -
30/05:00am - - - - - SE 20 26 11 14 - - -
30/04:30am - - - - - SE 17 20 9 11 - - -
30/04:00am - - - - - SE 13 15 7 8 - - -
30/03:30am - - - - - SE 17 20 9 11 - - -
30/03:00am - - - - - SE 11 13 6 7 - - -
30/02:30am - - - - - SSE 13 15 7 8 - - -
30/02:00am - - - - - S 13 13 7 7 - - -
30/01:30am - - - - - SSE 15 17 8 9 - - -
30/01:00am - - - - - SE 9 11 5 6 - - -
30/12:30am - - - - - SE 9 11 5 6 - - -
30/12:00am - - - - - SE 9 11 5 6 - - -
 
Date/Time
WST
Temp
°C
App
Temp
°C
Dew
Point
Rel
Hum
%
Delta-T
°C
Wind Press
QNH
hPa
Press
MSL
hPa
Rain
since 9 am
mm
Dir
 
Spd
km/h
Gust
km/h
Spd
kts
Gust
kts
29/11:30pm - - - - - SSE 11 17 6 9 - - -
29/11:00pm - - - - - ESE 9 11 5 6 - - -
29/10:30pm - - - - - SE 11 13 6 7 - - -
29/10:00pm - - - - - SSE 11 13 6 7 - - -
29/09:30pm - - - - - S 9 11 5 6 - - -
29/09:00pm - - - - - SE 7 9 4 5 - - -
29/08:30pm - - - - - ESE 9 11 5 6 - - -
29/08:00pm - - - - - E 9 11 5 6 - - -
29/07:30pm - - - - - E 11 13 6 7 - - -
29/07:00pm - - - - - ESE 4 6 2 3 - - -
29/06:30pm - - - - - CALM 0 7 0 4 - - -
29/06:00pm - - - - - NE 2 9 1 5 - - -
29/05:30pm - - - - - NNE 7 7 4 4 - - -
29/05:00pm - - - - - N 7 9 4 5 - - -
29/04:30pm - - - - - NNE 9 9 5 5 - - -
29/04:00pm - - - - - NNE 9 11 5 6 - - -
29/03:30pm - - - - - NE 11 11 6 6 - - -
29/03:00pm - - - - - NNE 9 9 5 5 - - -
29/02:30pm - - - - - N 9 9 5 5 - - -
29/02:00pm - - - - - N 9 11 5 6 - - -
29/01:30pm - - - - - NNE 9 11 5 6 - - -
29/01:00pm - - - - - N 7 7 4 4 - - -
29/12:30pm - - - - - ENE 9 11 5 6 - - -
29/12:00pm - - - - - E 15 17 8 9 - - -
29/11:30am - - - - - E 17 19 9 10 - - -
29/11:00am - - - - - E 13 15 7 8 - - -
29/10:30am - - - - - ESE 13 15 7 8 - - -
29/10:00am - - - - - SE 9 11 5 6 - - -
29/09:30am - - - - - ESE 15 17 8 9 - - -
29/09:00am - - - - - E 11 13 6 7 - - -
29/08:30am - - - - - E 15 17 8 9 - - -
29/08:00am - - - - - E 17 19 9 10 - - -
29/07:30am - - - - - ESE 11 11 6 6 - - -
29/07:00am - - - - - SE 13 15 7 8 - - -
29/06:30am - - - - - SE 13 15 7 8 - - -
29/06:00am - - - - - SE 11 13 6 7 - - -
29/05:30am - - - - - SE 11 11 6 6 - - -
29/05:00am - - - - - SE 11 13 6 7 - - -
29/04:30am - - - - - SSE 9 11 5 6 - - -
29/04:00am - - - - - S 9 11 5 6 - - -
29/03:30am - - - - - SSE 11 13 6 7 - - -
29/03:00am - - - - - SSE 11 13 6 7 - - -
29/02:30am - - - - - SSE 9 11 5 6 - - -
29/02:00am - - - - - WSW 6 7 3 4 - - -
29/01:30am - - - - - CALM 0 2 0 1 - - -
29/01:00am - - - - - S 7 9 4 5 - - -
29/12:30am - - - - - SE 11 11 6 6 - - -
29/12:00am - - - - - SSE 9 9 5 5 - - -
 
Date/Time
WST
Temp
°C
App
Temp
°C
Dew
Point
Rel
Hum
%
Delta-T
°C
Wind Press
QNH
hPa
Press
MSL
hPa
Rain
since 9 am
mm
Dir
 
Spd
km/h
Gust
km/h
Spd
kts
Gust
kts
28/11:30pm - - - - - SSE 11 13 6 7 - - -
28/11:00pm - - - - - ESE 13 15 7 8 - - -
28/10:30pm - - - - - ESE 13 15 7 8 - - -
28/10:00pm - - - - - ESE 19 24 10 13 - - -
28/09:30pm - - - - - ESE 20 24 11 13 - - -
28/09:00pm - - - - - SE 19 22 10 12 - - -
28/08:30pm - - - - - SSE 15 17 8 9 - - -
28/08:00pm - - - - - SE 15 19 8 10 - - -
28/07:30pm - - - - - SE 17 19 9 10 - - -
28/07:00pm - - - - - SE 15 17 8 9 - - -
28/06:30pm - - - - - SSE 13 15 7 8 - - -
28/06:00pm - - - - - SSE 11 15 6 8 - - -
28/05:30pm - - - - - SE 11 11 6 6 - - -
28/05:00pm - - - - - ESE 13 15 7 8 - - -
28/04:30pm - - - - - ESE 13 15 7 8 - - -
28/04:00pm - - - - - ESE 15 20 8 11 - - -
28/03:30pm - - - - - E 17 19 9 10 - - -
28/03:00pm - - - - - E 17 20 9 11 - - -
28/02:30pm - - - - - ENE 24 26 13 14 - - -
28/02:00pm - - - - - ENE 26 30 14 16 - - -
28/01:30pm - - - - - ENE 26 30 14 16 - - -
28/01:00pm - - - - - ENE 32 33 17 18 - - -
28/12:30pm - - - - - NE 32 37 17 20 - - -
28/12:00pm - - - - - NE 33 39 18 21 - - -
28/11:30am - - - - - NE 32 37 17 20 - - -
28/11:00am - - - - - ENE 28 32 15 17 - - -
28/10:30am - - - - - ENE 28 32 15 17 - - -
28/10:00am - - - - - E 24 30 13 16 - - -
28/09:30am - - - - - E 28 32 15 17 - - -
28/09:00am - - - - - E 30 33 16 18 - - -
28/08:30am - - - - - ESE 26 28 14 15 - - -
28/08:00am - - - - - ESE 19 24 10 13 - - -
28/07:30am - - - - - ESE 19 22 10 12 - - -
28/07:00am - - - - - ESE 17 19 9 10 - - -
28/06:30am - - - - - SE 17 19 9 10 - - -
28/06:00am - - - - - E 19 20 10 11 - - -
28/05:30am - - - - - NE 20 24 11 13 - - -
28/05:00am - - - - - NE 30 33 16 18 - - -
28/04:30am - - - - - NE 37 41 20 22 - - -
28/04:00am - - - - - NNE 37 43 20 23 - - -
28/03:30am - - - - - NE 32 37 17 20 - - -
28/03:00am - - - - - NE 28 33 15 18 - - -
28/02:30am - - - - - E 22 26 12 14 - - -
28/02:00am - - - - - E 22 26 12 14 - - -
28/01:30am - - - - - ENE 24 28 13 15 - - -
28/01:00am - - - - - ENE 20 24 11 13 - - -
28/12:30am - - - - - E 15 17 8 9 - - -
28/12:00am - - - - - ESE 9 13 5 7 - - -
 
Date/Time
WST
Temp
°C
App
Temp
°C
Dew
Point
Rel
Hum
%
Delta-T
°C
Wind Press
QNH
hPa
Press
MSL
hPa
Rain
since 9 am
mm
Dir
 
Spd
km/h
Gust
km/h
Spd
kts
Gust
kts
27/11:30pm - - - - - ESE 7 9 4 5 - - -
27/11:00pm - - - - - ESE 13 15 7 8 - - -
27/10:30pm - - - - - ESE 13 15 7 8 - - -
27/10:00pm - - - - - E 13 15 7 8 - - -
27/09:30pm - - - - - E 13 15 7 8 - - -
27/09:00pm - - - - - SE 15 17 8 9 - - -
27/08:30pm - - - - - SE 13 13 7 7 - - -

Other Formats:

Comma delimited format used in spreadsheet applications
http://www.bom.gov.au/fwo/IDW60801/IDW60801.95602.axf

JavaScript Object Notation format (JSON) in row-major order
http://www.bom.gov.au/fwo/IDW60801/IDW60801.95602.json